Time;durP1;ratioP1;P1;durP2;ratioP2;P2;SDS_P1;SDS_P2;PMS_P1;PMS_P2;Temp;Humidity;BMP_temperature;BMP_pressure;BME280_temperature;BME280_humidity;BME280_pressure;Samples;Min_cycle;Max_cycle;Signal;HPM_P1;HPM_P2
2023/03/10 00:01:17;;;;;;;40.38;23.85;;;1.30;99.90;;;;;;5034704;28;20060;-90
2023/03/10 00:03:44;;;;;;;41.58;23.77;;;0.90;99.90;;;;;;5034519;28;20087;-89
2023/03/10 00:06:13;;;;;;;42.67;23.70;;;1.00;99.90;;;;;;5034500;28;20133;-89
2023/03/10 00:08:50;;;;;;;40.80;23.17;;;0.90;99.90;;;;;;5035412;28;20041;-90
2023/03/10 00:11:16;;;;;;;41.15;22.95;;;0.50;99.90;;;;;;5033888;28;20083;-90
2023/03/10 00:13:42;;;;;;;36.50;21.42;;;0.80;99.90;;;;;;5035055;28;20056;-89
2023/03/10 00:16:27;;;;;;;35.20;21.25;;;0.90;99.90;;;;;;5034443;28;20053;-90
2023/03/10 00:18:54;;;;;;;37.30;21.70;;;0.80;99.90;;;;;;5033977;28;20045;-90
2023/03/10 00:21:28;;;;;;;41.13;21.58;;;1.10;99.90;;;;;;5034177;28;20049;-89
2023/03/10 00:23:55;;;;;;;37.95;20.80;;;0.80;99.90;;;;;;5034057;28;20064;-90
2023/03/10 00:26:22;;;;;;;36.80;20.98;;;0.80;99.90;;;;;;5034943;28;20136;-90
2023/03/10 00:28:48;;;;;;;38.85;22.00;;;0.80;99.90;;;;;;5034062;28;20040;-90
2023/03/10 00:31:31;;;;;;;37.30;22.52;;;0.70;99.90;;;;;;5033425;28;20456;-89
2023/03/10 00:33:57;;;;;;;41.45;23.75;;;1.20;99.90;;;;;;5034227;28;20045;-89
2023/03/10 00:36:27;;;;;;;39.70;22.88;;;0.70;99.90;;;;;;5033874;28;20558;-90
2023/03/10 00:39:04;;;;;;;44.13;25.38;;;0.80;99.90;;;;;;5034300;28;20037;-89
2023/03/10 00:41:35;;;;;;;42.45;24.23;;;0.70;99.90;;;;;;5034765;28;20080;-89
2023/03/10 00:44:10;;;;;;;43.58;25.20;;;0.80;99.90;;;;;;5034561;28;20049;-89
2023/03/10 00:46:37;;;;;;;43.17;24.85;;;1.30;99.90;;;;;;5033202;28;20594;-90
2023/03/10 00:49:04;;;;;;;42.33;26.35;;;1.50;99.90;;;;;;5033792;28;20480;-89
2023/03/10 00:51:36;;;;;;;39.40;24.25;;;1.10;99.90;;;;;;5033947;28;20052;-89
2023/03/10 00:54:02;;;;;;;39.35;23.15;;;0.80;99.90;;;;;;5033552;28;20041;-89
2023/03/10 00:56:31;;;;;;;34.13;21.60;;;0.80;99.90;;;;;;5033970;28;20056;-89
2023/03/10 00:58:59;;;;;;;30.70;18.48;;;0.90;99.90;;;;;;5033007;28;20044;-90
2023/03/10 01:01:31;;;;;;;31.17;18.90;;;1.00;99.90;;;;;;5033574;28;20041;-90
2023/03/10 01:04:00;;;;;;;24.98;16.80;;;1.00;99.90;;;;;;5034170;28;20041;-90
2023/03/10 01:06:29;;;;;;;26.98;16.25;;;1.70;99.90;;;;;;5033308;28;20053;-89
2023/03/10 01:08:55;;;;;;;24.15;15.50;;;0.40;99.90;;;;;;5033574;28;20109;-90
2023/03/10 01:11:35;;;;;;;25.58;15.80;;;1.30;99.90;;;;;;5033998;28;20127;-90
2023/03/10 01:14:04;;;;;;;23.27;14.82;;;1.00;99.90;;;;;;5033221;28;20499;-90
2023/03/10 01:16:30;;;;;;;25.83;14.65;;;1.20;99.90;;;;;;5049546;28;20084;-89
2023/03/10 01:18:57;;;;;;;23.70;14.27;;;1.70;99.90;;;;;;5053594;28;20086;-89
2023/03/10 01:21:39;;;;;;;23.60;13.88;;;1.10;99.90;;;;;;5052798;28;20135;-90
2023/03/10 01:24:13;;;;;;;24.95;14.40;;;1.00;99.90;;;;;;5053497;28;20090;-90
2023/03/10 01:26:39;;;;;;;19.48;13.07;;;1.10;99.90;;;;;;5053889;28;20051;-90
2023/03/10 01:29:04;;;;;;;21.73;13.93;;;1.10;99.90;;;;;;5053686;28;20052;-90
2023/03/10 01:31:30;;;;;;;20.90;12.82;;;1.10;99.90;;;;;;5053568;28;20041;-89
2023/03/10 01:33:56;;;;;;;20.88;13.00;;;1.10;99.90;;;;;;5053681;28;20074;-89
2023/03/10 01:36:48;;;;;;;19.42;11.98;;;1.10;99.90;;;;;;5051491;28;20044;-90
2023/03/10 01:39:14;;;;;;;19.85;11.82;;;1.50;99.90;;;;;;5052586;28;20117;-89
2023/03/10 01:41:40;;;;;;;20.50;13.10;;;1.20;99.90;;;;;;5052102;28;20044;-88
2023/03/10 01:44:16;;;;;;;20.98;12.50;;;1.40;99.90;;;;;;5053359;28;20133;-90
2023/03/10 01:46:49;;;;;;;20.20;12.40;;;1.20;99.90;;;;;;5052866;28;20097;-90
2023/03/10 01:49:41;;;;;;;18.88;11.88;;;1.80;99.90;;;;;;5052557;28;20109;-89
2023/03/10 01:52:16;;;;;;;19.08;12.35;;;1.10;99.90;;;;;;5052298;28;20040;-89
2023/03/10 01:54:48;;;;;;;20.63;11.90;;;1.20;99.90;;;;;;5053068;28;20041;-89
2023/03/10 01:57:17;;;;;;;21.73;12.52;;;1.20;99.90;;;;;;5053052;28;20478;-89
2023/03/10 01:59:47;;;;;;;20.20;12.45;;;1.20;99.90;;;;;;5053184;28;20060;-89
2023/03/10 02:02:13;;;;;;;21.80;13.50;;;1.00;99.90;;;;;;5052811;28;20049;-89
2023/03/10 02:04:47;;;;;;;20.38;13.98;;;1.70;99.90;;;;;;5052924;28;20131;-89
2023/03/10 02:07:15;;;;;;;21.33;13.32;;;1.30;99.90;;;;;;5052994;28;20242;-89
2023/03/10 02:09:45;;;;;;;21.23;13.05;;;1.90;99.90;;;;;;5052379;28;20093;-89
2023/03/10 02:12:20;;;;;;;21.38;12.68;;;1.20;99.90;;;;;;5051885;28;20133;-89
2023/03/10 02:14:51;;;;;;;20.27;12.75;;;1.50;99.90;;;;;;5054477;28;20044;-88
2023/03/10 02:17:25;;;;;;;20.23;13.50;;;2.10;99.90;;;;;;5036485;28;20052;-89
2023/03/10 02:20:20;;;;;;;20.35;13.70;;;1.20;99.90;;;;;;5035567;28;20076;-89
2023/03/10 02:22:47;;;;;;;21.73;13.90;;;1.20;99.90;;;;;;5034935;28;20052;-89
2023/03/10 02:25:18;;;;;;;23.48;14.07;;;1.30;99.90;;;;;;5035193;28;20044;-88
2023/03/10 02:27:44;;;;;;;23.10;13.82;;;1.30;99.90;;;;;;5035793;28;20056;-89
2023/03/10 02:30:23;;;;;;;23.73;15.48;;;1.30;99.90;;;;;;5035684;28;20048;-89
2023/03/10 02:33:03;;;;;;;29.27;16.40;;;1.30;99.90;;;;;;5035787;28;20048;-89
2023/03/10 02:35:29;;;;;;;27.63;16.83;;;1.20;99.90;;;;;;5035510;28;20140;-89
2023/03/10 02:37:55;;;;;;;26.05;16.50;;;2.10;99.90;;;;;;5035188;28;20135;-90
2023/03/10 02:40:39;;;;;;;27.15;16.48;;;1.10;99.90;;;;;;5035705;28;20110;-90
2023/03/10 02:43:21;;;;;;;29.65;16.27;;;1.20;99.90;;;;;;5036215;28;20084;-89
2023/03/10 02:45:49;;;;;;;26.63;16.33;;;1.20;99.90;;;;;;5035274;28;20499;-89
2023/03/10 02:48:25;;;;;;;24.67;15.23;;;1.20;99.90;;;;;;5036171;28;20040;-90
2023/03/10 02:50:52;;;;;;;24.85;15.82;;;1.20;99.90;;;;;;5035169;28;20075;-89
2023/03/10 02:53:21;;;;;;;30.42;17.10;;;1.10;99.90;;;;;;5035344;28;20048;-89
2023/03/10 02:55:55;;;;;;;26.90;17.00;;;1.80;99.90;;;;;;5035189;28;20049;-92
2023/03/10 02:58:22;;;;;;;29.65;17.10;;;1.10;99.90;;;;;;5036036;28;20484;-90
2023/03/10 03:00:49;;;;;;;27.92;17.20;;;1.10;99.90;;;;;;5035188;28;20139;-90
2023/03/10 03:03:17;;;;;;;28.30;17.65;;;1.10;99.90;;;;;;5035536;28;20045;-89
2023/03/10 03:05:50;;;;;;;28.35;16.98;;;1.10;99.90;;;;;;5034847;28;20604;-91
2023/03/10 03:08:29;;;;;;;28.98;17.25;;;1.10;99.90;;;;;;5035367;28;20503;-91
2023/03/10 03:10:56;;;;;;;32.08;18.75;;;1.10;99.90;;;;;;5035662;28;20484;-91
2023/03/10 03:13:21;;;;;;;31.48;19.30;;;1.40;99.90;;;;;;5035542;28;20491;-90
2023/03/10 03:15:47;;;;;;;31.60;19.42;;;1.30;99.90;;;;;;5027827;28;20063;-90
2023/03/10 03:18:13;;;;;;;33.97;21.42;;;1.00;99.90;;;;;;5035708;28;20052;-91
2023/03/10 03:20:48;;;;;;;36.08;21.45;;;1.00;99.90;;;;;;5034344;28;20087;-91
2023/03/10 03:23:23;;;;;;;38.22;23.02;;;0.90;99.90;;;;;;5036600;28;20109;-91
2023/03/10 03:25:49;;;;;;;36.28;21.92;;;1.00;99.90;;;;;;5038993;28;20044;-91
2023/03/10 03:28:24;;;;;;;37.25;22.05;;;1.00;99.90;;;;;;5038790;28;20488;-91
2023/03/10 03:30:50;;;;;;;39.08;22.27;;;1.50;99.90;;;;;;5039071;28;20123;-91
2023/03/10 03:33:15;;;;;;;36.25;20.90;;;1.20;99.90;;;;;;5039464;28;20087;-91
2023/03/10 03:35:54;;;;;;;37.22;21.80;;;0.90;99.90;;;;;;5037369;28;20037;-91
2023/03/10 03:38:31;;;;;;;37.80;22.30;;;0.90;99.90;;;;;;5038978;28;20098;-91
2023/03/10 03:40:57;;;;;;;36.28;22.42;;;0.90;99.90;;;;;;5038631;28;20033;-92
2023/03/10 03:43:24;;;;;;;34.50;20.13;;;0.80;99.90;;;;;;5053834;28;20119;-91
2023/03/10 03:45:49;;;;;;;37.58;22.13;;;0.80;99.90;;;;;;5075136;28;20044;-90
2023/03/10 03:48:15;;;;;;;37.90;21.60;;;0.80;99.90;;;;;;5074951;28;20059;-91
2023/03/10 03:50:41;;;;;;;40.15;22.85;;;0.80;99.90;;;;;;5074583;28;20040;-91
2023/03/10 03:53:07;;;;;;;36.67;21.30;;;1.90;99.90;;;;;;5075826;28;20085;-91
2023/03/10 03:55:32;;;;;;;39.50;22.73;;;0.90;99.90;;;;;;5074095;28;20040;-91
2023/03/10 03:58:01;;;;;;;36.45;21.23;;;2.20;99.90;;;;;;5075991;28;20528;-91
2023/03/10 04:00:27;;;;;;;38.47;22.08;;;0.90;99.90;;;;;;5075297;28;20385;-91
2023/03/10 04:02:58;;;;;;;35.10;21.75;;;0.90;99.90;;;;;;5075240;28;20043;-92
2023/03/10 04:05:30;;;;;;;38.83;22.45;;;0.90;99.90;;;;;;5058166;28;20052;-91
2023/03/10 04:07:58;;;;;;;35.70;21.85;;;0.80;99.90;;;;;;5075962;28;20055;-92
2023/03/10 04:10:35;;;;;;;38.65;21.50;;;1.30;99.90;;;;;;5074864;28;20050;-91
2023/03/10 04:13:00;;;;;;;40.78;22.85;;;0.90;99.90;;;;;;5059432;28;20094;-91
2023/03/10 04:15:26;;;;;;;36.33;21.45;;;2.00;99.90;;;;;;5076362;28;20071;-91
2023/03/10 04:17:56;;;;;;;39.15;22.13;;;0.90;99.90;;;;;;5065592;28;20059;-92
2023/03/10 04:20:25;;;;;;;41.20;23.30;;;0.90;99.90;;;;;;5095365;28;20047;-91
2023/03/10 04:22:54;;;;;;;41.72;22.38;;;1.60;99.90;;;;;;5078536;28;20050;-92
2023/03/10 04:25:32;;;;;;;37.80;21.83;;;0.90;99.90;;;;;;5095347;28;20162;-91
2023/03/10 04:28:03;;;;;;;40.90;22.52;;;0.90;99.90;;;;;;5096063;28;20036;-92
2023/03/10 04:30:29;;;;;;;39.80;22.83;;;0.90;99.90;;;;;;5078245;28;20052;-91
2023/03/10 04:32:58;;;;;;;41.67;23.52;;;0.90;99.90;;;;;;5094998;28;20058;-92
2023/03/10 04:35:24;;;;;;;39.47;22.63;;;1.00;99.90;;;;;;5077361;28;20111;-91
2023/03/10 04:37:50;;;;;;;40.83;24.10;;;1.00;99.90;;;;;;5093646;28;20150;-91
2023/03/10 04:40:16;;;;;;;45.30;25.15;;;1.00;99.90;;;;;;5094304;28;20091;-91
2023/03/10 04:42:41;;;;;;;43.45;24.83;;;0.90;99.90;;;;;;5094879;28;20047;-91
2023/03/10 04:45:15;;;;;;;46.92;25.23;;;1.00;99.90;;;;;;5094824;28;20537;-91
2023/03/10 04:47:41;;;;;;;43.28;24.02;;;1.00;99.90;;;;;;5094532;28;20052;-92
2023/03/10 04:50:09;;;;;;;46.30;25.98;;;1.00;99.90;;;;;;5093936;28;20390;-91
2023/03/10 04:52:45;;;;;;;51.20;26.02;;;1.00;99.90;;;;;;5076980;28;20051;-90
2023/03/10 04:55:12;;;;;;;51.83;26.98;;;1.60;99.90;;;;;;5094309;28;20047;-92
2023/03/10 04:57:38;;;;;;;51.13;27.38;;;0.90;99.90;;;;;;5077558;28;20126;-91
2023/03/10 05:00:06;;;;;;;56.83;29.58;;;0.90;99.90;;;;;;5077406;28;20040;-93
2023/03/10 05:02:33;;;;;;;56.15;28.58;;;0.90;99.90;;;;;;5076900;28;20452;-92
2023/03/10 05:05:00;;;;;;;66.43;33.05;;;0.90;99.90;;;;;;5076872;28;20502;-92
2023/03/10 05:07:31;;;;;;;62.72;32.42;;;1.10;99.90;;;;;;5093860;28;20039;-92
2023/03/10 05:09:57;;;;;;;67.20;34.30;;;0.80;99.90;;;;;;5094318;28;20051;-93
2023/03/10 05:12:23;;;;;;;70.10;34.63;;;0.80;99.90;;;;;;5075866;28;20194;-93
2023/03/10 05:14:49;;;;;;;80.15;37.67;;;1.70;99.90;;;;;;5094306;28;20502;-92
2023/03/10 05:17:29;;;;;;;72.57;36.58;;;1.10;99.90;;;;;;5093834;28;20513;-92
2023/03/10 05:19:55;;;;;;;84.35;38.03;;;0.70;99.90;;;;;;5092759;28;20055;-92
2023/03/10 05:22:20;;;;;;;81.40;38.08;;;0.70;99.90;;;;;;5076532;28;20051;-91
2023/03/10 05:24:47;;;;;;;73.10;36.80;;;0.70;99.90;;;;;;5090702;28;20062;-90
2023/03/10 05:27:18;;;;;;;76.25;37.50;;;0.60;99.90;;;;;;5093165;28;20047;-91
2023/03/10 05:29:53;;;;;;;75.70;36.58;;;0.60;99.90;;;;;;5093831;28;20085;-94
2023/03/10 05:32:25;;;;;;;79.38;38.45;;;1.40;99.90;;;;;;5093791;28;20071;-91
2023/03/10 05:35:01;;;;;;;80.88;38.05;;;0.60;99.90;;;;;;5075956;28;20039;-91
2023/03/10 05:37:45;;;;;;;73.43;35.90;;;0.60;99.90;;;;;;5093772;28;20047;-92
2023/03/10 05:40:14;;;;;;;75.82;36.65;;;1.00;99.90;;;;;;5094201;28;20066;-91
2023/03/10 05:42:40;;;;;;;73.15;33.38;;;0.50;99.90;;;;;;5076225;28;20043;-91
2023/03/10 05:45:07;;;;;;;70.95;35.05;;;0.60;99.90;;;;;;5093791;28;20062;-92
2023/03/10 05:47:45;;;;;;;62.97;31.75;;;0.50;99.90;;;;;;5075830;28;20111;-92
2023/03/10 05:50:14;;;;;;;61.08;29.85;;;0.50;99.90;;;;;;5075970;28;20135;-92
2023/03/10 05:52:42;;;;;;;62.00;30.10;;;0.50;99.90;;;;;;5093059;28;20101;-91
2023/03/10 05:55:12;;;;;;;65.47;30.17;;;1.10;99.90;;;;;;5075657;28;20043;-91
2023/03/10 05:57:38;;;;;;;58.20;28.35;;;0.50;99.90;;;;;;5076547;28;20130;-89
2023/03/10 06:00:13;;;;;;;55.45;28.38;;;0.40;99.90;;;;;;5092772;28;20151;-92
2023/03/10 06:02:44;;;;;;;54.70;27.95;;;0.50;99.90;;;;;;5075689;28;20506;-89
2023/03/10 06:05:12;;;;;;;59.05;26.75;;;0.50;99.90;;;;;;5091552;28;20047;-89
2023/03/10 06:07:43;;;;;;;56.80;26.27;;;0.40;99.90;;;;;;5074920;28;20440;-91
2023/03/10 06:10:10;;;;;;;54.88;25.63;;;1.20;99.90;;;;;;5074385;28;20047;-90
2023/03/10 06:12:35;;;;;;;53.22;26.55;;;0.50;99.90;;;;;;5075030;28;20044;-91
2023/03/10 06:15:01;;;;;;;57.55;25.38;;;0.50;99.90;;;;;;5091392;28;20051;-90
2023/03/10 06:17:40;;;;;;;60.35;26.17;;;0.80;99.90;;;;;;5091077;28;20154;-90
2023/03/10 06:20:06;;;;;;;50.00;24.10;;;0.40;99.90;;;;;;5073979;28;20096;-90
2023/03/10 06:22:35;;;;;;;48.13;23.83;;;0.40;99.90;;;;;;5074432;28;20482;-90
2023/03/10 06:25:01;;;;;;;51.78;23.25;;;0.40;99.90;;;;;;5073944;28;20093;-89
2023/03/10 06:27:39;;;;;;;51.38;23.77;;;0.40;99.90;;;;;;5074504;28;20043;-89
2023/03/10 06:30:08;;;;;;;43.22;22.25;;;0.30;99.90;;;;;;5073997;28;20065;-89
2023/03/10 06:32:43;;;;;;;48.15;24.02;;;0.40;99.90;;;;;;5074295;28;20043;-88
2023/03/10 06:35:19;;;;;;;49.10;22.40;;;0.40;99.90;;;;;;5071388;28;20375;-88
2023/03/10 06:37:45;;;;;;;49.33;23.00;;;0.40;99.90;;;;;;5091146;28;20040;-89
2023/03/10 06:40:13;;;;;;;45.50;21.75;;;0.40;99.90;;;;;;5073943;28;20079;-89
2023/03/10 06:42:47;;;;;;;49.78;23.50;;;0.40;99.90;;;;;;5091240;28;20039;-89
2023/03/10 06:45:15;;;;;;;48.88;23.55;;;0.40;99.90;;;;;;5085113;28;20083;-88
2023/03/10 06:47:41;;;;;;;46.92;22.40;;;0.40;99.90;;;;;;5074045;28;20047;-88
2023/03/10 06:50:08;;;;;;;46.55;22.58;;;0.40;99.90;;;;;;5072829;28;20065;-88
2023/03/10 06:52:34;;;;;;;55.85;25.13;;;0.30;99.90;;;;;;5073738;28;20039;-89
2023/03/10 06:55:12;;;;;;;54.90;23.67;;;0.40;99.90;;;;;;5074134;28;20093;-88
2023/03/10 06:57:38;;;;;;;46.65;22.20;;;0.40;99.90;;;;;;5072746;28;20122;-89
2023/03/10 07:00:19;;;;;;;48.67;22.63;;;0.40;99.90;;;;;;5077430;28;20035;-89
2023/03/10 07:02:45;;;;;;;49.67;24.05;;;0.40;99.90;;;;;;5077432;28;20044;-88
2023/03/10 07:05:16;;;;;;;45.78;22.83;;;0.60;99.90;;;;;;5093530;28;20066;-88
2023/03/10 07:07:45;;;;;;;53.33;23.98;;;0.70;99.90;;;;;;5077451;28;20075;-89
2023/03/10 07:10:17;;;;;;;53.08;24.10;;;0.50;99.90;;;;;;5077720;28;20587;-89
2023/03/10 07:12:54;;;;;;;47.95;23.15;;;0.50;99.90;;;;;;5076900;28;20036;-88
2023/03/10 07:15:21;;;;;;;54.75;23.30;;;1.10;99.90;;;;;;5092000;28;20043;-88
2023/03/10 07:17:50;;;;;;;51.42;24.13;;;0.50;99.90;;;;;;5054930;28;20050;-89
2023/03/10 07:20:16;;;;;;;54.33;25.08;;;1.00;99.90;;;;;;5055765;28;20513;-90
2023/03/10 07:22:48;;;;;;;49.17;24.58;;;0.60;99.90;;;;;;5057661;28;20445;-90
2023/03/10 07:25:14;;;;;;;59.97;26.15;;;0.50;99.90;;;;;;5057342;28;20469;-89
2023/03/10 07:27:40;;;;;;;53.22;26.13;;;0.60;99.90;;;;;;5057641;28;20036;-90
2023/03/10 07:30:09;;;;;;;59.47;28.05;;;0.70;99.90;;;;;;5057906;28;20044;-89
2023/03/10 07:33:31;;;;;;;;;;;;;;;;;;;;;
2023/03/10 07:36:22;;;;;;;;;;;;;;;;;;;;;
2023/03/10 07:39:44;;;;;;;56.08;27.23;;;0.00;99.90;;;;;;5072952;28;20550;-91
2023/03/10 07:42:10;;;;;;;58.70;28.02;;;0.80;99.90;;;;;;5072565;28;20048;-91
2023/03/10 07:44:52;;;;;;;56.85;26.55;;;0.50;99.90;;;;;;5056429;28;20050;-92
2023/03/10 07:47:23;;;;;;;50.03;26.17;;;0.90;99.90;;;;;;5053701;28;20058;-92
2023/03/10 07:49:49;;;;;;;49.78;25.98;;;0.90;99.90;;;;;;5057285;28;20408;-92
2023/03/10 07:52:17;;;;;;;48.30;25.05;;;1.00;99.90;;;;;;5057272;28;20044;-94
2023/03/10 07:54:43;;;;;;;44.92;24.67;;;1.00;99.90;;;;;;5057291;28;20036;-93
2023/03/10 07:57:11;;;;;;;45.97;24.25;;;1.10;99.90;;;;;;5057211;28;20411;-93
2023/03/10 07:59:52;;;;;;;42.85;22.77;;;1.10;99.90;;;;;;5056745;28;20040;-95
2023/03/10 08:02:29;;;;;;;40.88;23.58;;;1.20;99.90;;;;;;5058227;28;20079;-92
2023/03/10 08:05:33;;;;;;;;;;;;;;;;;;;;;
2023/03/10 08:08:16;;;;;;;42.58;25.00;;;1.10;99.90;;;;;;5009187;28;20111;-94
2023/03/10 08:11:10;;;;;;;38.10;23.70;;;1.10;99.90;;;;;;5056675;28;20039;-94
2023/03/10 08:20:05;;;;;;;41.35;22.80;;;1.00;99.90;;;;;;4918142;28;20042;-93
2023/03/10 08:22:33;;;;;;;40.92;23.90;;;1.00;99.90;;;;;;4977744;28;20109;-89
2023/03/10 08:25:00;;;;;;;41.40;23.40;;;1.10;99.90;;;;;;4979372;28;20049;-94
2023/03/10 08:27:31;;;;;;;39.70;22.88;;;1.10;99.90;;;;;;4978944;28;20046;-91
2023/03/10 08:29:57;;;;;;;39.55;24.17;;;1.00;99.90;;;;;;4978471;28;20101;-91
2023/03/10 08:32:23;;;;;;;40.47;24.60;;;1.00;99.90;;;;;;4978291;28;20038;-91
2023/03/10 08:34:49;;;;;;;42.05;24.92;;;1.10;99.90;;;;;;4978421;28;20088;-91
2023/03/10 08:37:26;;;;;;;43.28;24.60;;;1.40;99.90;;;;;;4977506;28;20061;-90
2023/03/10 08:39:57;;;;;;;40.65;24.35;;;1.10;99.90;;;;;;4978213;28;20046;-90
2023/03/10 08:43:15;;;;;;;42.90;24.85;;;0.60;99.90;;;;;;4979503;28;20042;-91
2023/03/10 08:45:41;;;;;;;41.65;23.83;;;1.30;99.90;;;;;;4933181;28;20089;-92
2023/03/10 08:48:23;;;;;;;41.08;24.67;;;1.20;99.90;;;;;;4978287;28;20038;-92
2023/03/10 08:51:14;;;;;;;38.53;23.52;;;1.50;99.90;;;;;;4976968;28;20080;-89
2023/03/10 08:53:50;;;;;;;38.25;23.25;;;1.40;99.90;;;;;;4977452;28;20041;-92
2023/03/10 08:56:23;;;;;;;39.53;23.15;;;1.40;99.90;;;;;;4977472;28;20046;-93
2023/03/10 08:59:01;;;;;;;38.65;22.60;;;1.40;99.90;;;;;;4977260;28;20100;-92
2023/03/10 09:02:04;;;;;;;39.15;23.45;;;2.10;99.90;;;;;;4977997;28;20411;-92
2023/03/10 09:04:30;;;;;;;38.90;22.47;;;1.50;99.90;;;;;;4978037;28;20050;-91
2023/03/10 09:06:56;;;;;;;36.85;22.48;;;1.50;99.90;;;;;;4976909;28;20050;-91
2023/03/10 09:09:21;;;;;;;35.10;21.63;;;1.50;99.90;;;;;;4978208;28;20485;-92
2023/03/10 09:11:47;;;;;;;40.83;22.00;;;1.50;99.90;;;;;;4977635;28;20050;-92
2023/03/10 09:14:19;;;;;;;34.15;20.77;;;1.40;99.90;;;;;;4977369;28;20081;-92
2023/03/10 09:16:44;;;;;;;37.28;21.80;;;1.40;99.90;;;;;;4977448;28;20061;-92
2023/03/10 09:19:10;;;;;;;34.38;21.45;;;1.90;99.90;;;;;;4993059;28;20092;-92
2023/03/10 09:21:36;;;;;;;32.60;21.25;;;1.90;99.90;;;;;;4975919;28;20097;-92
2023/03/10 09:24:14;;;;;;;37.70;22.73;;;1.40;99.90;;;;;;4977601;28;20093;-92
2023/03/10 09:26:40;;;;;;;35.45;22.85;;;1.50;99.90;;;;;;4993441;28;20042;-92
2023/03/10 09:29:05;;;;;;;37.05;22.67;;;1.40;99.90;;;;;;4993867;28;20042;-92
2023/03/10 09:31:33;;;;;;;36.05;21.60;;;1.50;99.90;;;;;;4977119;28;20140;-92
2023/03/10 09:34:22;;;;;;;35.67;21.42;;;1.50;99.90;;;;;;4992020;28;20410;-92
2023/03/10 09:36:46;;;;;;;34.90;20.67;;;1.50;99.90;;;;;;4991532;28;20081;-92
2023/03/10 09:39:29;;;;;;;35.33;20.58;;;2.20;99.90;;;;;;4994284;28;20413;-92
2023/03/10 09:42:04;;;;;;;32.22;20.88;;;1.50;99.90;;;;;;4977220;28;20474;-92
2023/03/10 09:44:56;;;;;;;33.67;21.00;;;1.50;99.90;;;;;;4976237;28;20073;-92
2023/03/10 09:47:44;;;;;;;35.20;21.60;;;1.50;99.90;;;;;;4974227;28;20050;-93
2023/03/10 09:50:51;;;;;;;33.10;20.48;;;1.50;99.90;;;;;;4972543;28;20046;-91
2023/03/10 09:53:28;;;;;;;34.13;20.83;;;1.50;99.90;;;;;;4970480;28;20058;-91
2023/03/10 09:56:23;;;;;;;34.25;21.58;;;1.40;99.90;;;;;;4975915;28;20053;-91
2023/03/10 09:58:55;;;;;;;33.63;20.63;;;1.40;99.90;;;;;;4976704;28;20133;-92
2023/03/10 10:01:28;;;;;;;33.08;20.58;;;1.40;99.90;;;;;;4976718;28;20049;-90
2023/03/10 10:04:23;;;;;;;36.03;21.50;;;1.50;99.90;;;;;;4977218;28;20077;-89
2023/03/10 10:06:50;;;;;;;32.72;20.65;;;1.50;99.90;;;;;;4975562;28;20108;-90
2023/03/10 10:10:03;;;;;;;36.75;21.33;;;1.80;99.90;;;;;;4972944;28;20038;-90
2023/03/10 10:12:30;;;;;;;28.40;19.00;;;2.10;99.90;;;;;;4960236;28;20060;-91
2023/03/10 10:15:33;;;;;;;;;;;;;;;;;;;;;
2023/03/10 10:24:22;;;;;;;28.08;19.23;;;1.70;99.90;;;;;;4989269;28;20050;-91
2023/03/10 10:26:48;;;;;;;28.52;18.77;;;1.50;99.90;;;;;;4974564;28;20034;-90
2023/03/10 10:29:45;;;;;;;29.88;19.77;;;1.60;99.90;;;;;;4990987;28;20050;-90
2023/03/10 10:32:14;;;;;;;35.97;19.75;;;1.60;99.90;;;;;;4972721;28;20489;-91
2023/03/10 10:34:45;;;;;;;34.03;20.65;;;1.50;99.90;;;;;;4975701;28;20049;-91
2023/03/10 10:37:37;;;;;;;32.00;19.50;;;2.00;99.90;;;;;;4976924;28;20046;-93
2023/03/10 10:40:23;;;;;;;33.78;19.92;;;1.60;99.90;;;;;;4979721;28;20069;-91
2023/03/10 10:43:16;;;;;;;31.75;19.95;;;0.70;99.90;;;;;;4977484;28;20038;-91
2023/03/10 10:45:53;;;;;;;28.92;18.98;;;1.40;99.90;;;;;;4979362;28;20128;-89
2023/03/10 10:49:10;;;;;;;32.13;20.13;;;1.40;99.90;;;;;;4979587;28;20383;-90
2023/03/10 10:51:43;;;;;;;35.38;20.98;;;2.10;99.90;;;;;;4977504;28;20508;-91
2023/03/10 10:54:27;;;;;;;32.15;19.67;;;1.40;99.90;;;;;;4980407;28;20094;-91
2023/03/10 10:56:56;;;;;;;32.72;19.75;;;1.40;99.90;;;;;;4979645;28;20042;-92
2023/03/10 10:59:41;;;;;;;30.33;19.33;;;1.40;99.90;;;;;;4980275;28;20052;-91
2023/03/10 11:02:23;;;;;;;30.75;20.58;;;1.30;99.90;;;;;;4978751;28;20083;-91
2023/03/10 11:04:49;;;;;;;34.28;20.73;;;1.40;99.90;;;;;;4976661;28;20409;-92
2023/03/10 11:07:18;;;;;;;33.25;20.17;;;2.00;99.90;;;;;;4978854;28;20041;-91
2023/03/10 11:09:45;;;;;;;33.20;20.98;;;1.30;99.90;;;;;;4976678;28;20129;-94
2023/03/10 11:12:51;;;;;;;34.72;21.75;;;1.30;99.90;;;;;;4978915;28;20049;-94
2023/03/10 11:15:46;;;;;;;34.30;20.88;;;1.20;99.90;;;;;;4946900;28;20042;-88
2023/03/10 11:18:44;;;;;;;35.60;20.75;;;1.30;99.90;;;;;;4959931;28;20121;-90
2023/03/10 11:24:09;;;;;;;;;;;;;;;;;;;;;
2023/03/10 11:27:13;;;;;;;34.55;20.77;;;1.40;99.90;;;;;;5033433;28;20041;-88
2023/03/10 11:29:58;;;;;;;34.20;20.00;;;1.40;99.90;;;;;;5018954;28;20045;-92
2023/03/10 11:32:44;;;;;;;34.20;20.40;;;1.40;99.90;;;;;;5018137;28;20048;-94
2023/03/10 11:35:25;;;;;;;37.38;21.33;;;1.00;99.90;;;;;;5034930;28;20049;-90
2023/03/10 11:38:06;;;;;;;37.13;20.75;;;1.30;99.90;;;;;;5018669;28;20053;-91
2023/03/10 11:40:52;;;;;;;37.33;21.25;;;1.30;99.90;;;;;;5017328;28;20052;-89
2023/03/10 11:43:21;;;;;;;34.55;22.00;;;1.30;99.90;;;;;;5017673;28;20051;-88
2023/03/10 11:45:53;;;;;;;34.58;21.73;;;1.30;99.90;;;;;;5018380;28;20053;-90
2023/03/10 11:48:40;;;;;;;34.97;20.10;;;1.10;99.90;;;;;;5017674;28;20057;-92
2023/03/10 11:51:25;;;;;;;35.10;19.92;;;1.30;99.90;;;;;;5017776;28;20400;-91
2023/03/10 11:53:54;;;;;;;34.10;20.50;;;1.00;99.90;;;;;;5018205;28;20475;-93
2023/03/10 11:56:44;;;;;;;32.95;20.38;;;2.00;99.90;;;;;;5036919;28;20124;-92
2023/03/10 11:59:19;;;;;;;35.28;21.23;;;1.30;99.90;;;;;;5018945;28;20102;-93
2023/03/10 12:02:14;;;;;;;33.30;20.70;;;1.30;99.90;;;;;;5017436;28;20041;-91
2023/03/10 12:04:48;;;;;;;35.15;21.42;;;1.30;99.90;;;;;;5009950;28;20064;-92
2023/03/10 12:07:36;;;;;;;32.60;20.27;;;1.30;99.90;;;;;;4995593;28;20558;-92
2023/03/10 12:10:21;;;;;;;;;;;;;;;;;;;;;
2023/03/10 12:12:57;;;;;;;34.00;21.13;;;1.30;99.90;;;;;;5012228;28;20050;-92
2023/03/10 12:15:41;;;;;;;35.72;19.75;;;2.10;99.90;;;;;;4995662;28;20127;-92
2023/03/10 12:18:19;;;;;;;32.35;19.83;;;1.80;99.90;;;;;;4996251;28;20056;-92
2023/03/10 12:21:11;;;;;;;32.72;20.58;;;1.20;99.90;;;;;;4995859;28;20050;-92
2023/03/10 12:23:50;;;;;;;34.88;20.73;;;1.20;99.90;;;;;;4994647;28;20493;-92
2023/03/10 12:26:54;;;;;;;32.83;21.65;;;2.10;99.90;;;;;;4996220;28;20485;-90
2023/03/10 12:29:20;;;;;;;34.88;20.45;;;1.30;99.90;;;;;;4994620;28;20077;-90
2023/03/10 12:31:56;;;;;;;34.88;19.83;;;1.20;99.90;;;;;;4995465;28;20085;-90
2023/03/10 12:34:30;;;;;;;33.33;19.88;;;1.20;99.90;;;;;;4995503;28;20053;-90
2023/03/10 12:37:07;;;;;;;31.02;20.00;;;0.80;99.90;;;;;;4994871;28;20041;-91
2023/03/10 12:39:45;;;;;;;31.80;19.63;;;1.30;99.90;;;;;;4995939;28;20136;-90
2023/03/10 12:42:45;;;;;;;33.90;19.67;;;1.30;99.90;;;;;;4995117;28;20045;-91
2023/03/10 12:45:32;;;;;;;30.63;18.80;;;1.40;99.90;;;;;;4996122;28;20060;-90
2023/03/10 12:48:15;;;;;;;31.27;18.90;;;1.30;99.90;;;;;;4996022;28;20412;-90
2023/03/10 12:50:55;;;;;;;34.67;20.40;;;1.30;99.90;;;;;;4994343;28;20219;-90
2023/03/10 12:53:46;;;;;;;33.00;20.05;;;1.30;99.90;;;;;;4995551;28;20068;-90
2023/03/10 12:56:49;;;;;;;35.30;20.92;;;1.40;99.90;;;;;;4994068;28;20099;-90
2023/03/10 12:59:40;;;;;;;31.92;20.77;;;1.40;99.90;;;;;;4995369;28;20049;-91
2023/03/10 13:02:25;;;;;;;35.10;20.75;;;1.40;99.90;;;;;;4995403;28;20049;-92
2023/03/10 13:05:21;;;;;;;37.15;21.23;;;1.30;99.90;;;;;;4994196;28;20501;-89
2023/03/10 13:08:04;;;;;;;34.15;20.63;;;0.90;99.90;;;;;;4995477;28;20041;-95
2023/03/10 13:10:36;;;;;;;;;;;0.70;99.90;;;;;;4995036;28;20045;-94
2023/03/10 13:14:01;;;;;;;34.35;20.60;;;1.40;99.90;;;;;;5036626;28;19921;-93
2023/03/10 13:20:43;;;;;;;30.02;19.90;;;1.20;99.90;;;;;;4976200;28;20060;-93
2023/03/10 13:51:57;;;;;;;;;;;;;;;;;;;;;
2023/03/10 13:58:00;;;;;;;32.63;20.02;;;0.50;99.90;;;;;;4919234;28;20056;-90
2023/03/10 14:00:46;;;;;;;31.70;20.20;;;1.80;99.90;;;;;;4978009;28;20413;-90
2023/03/10 14:03:51;;;;;;;35.88;21.10;;;1.30;99.90;;;;;;4998774;28;20493;-90
2023/03/10 14:06:46;;;;;;;38.75;21.20;;;0.90;99.90;;;;;;4995825;28;20431;-89
2023/03/10 14:13:39;;;;;;;34.38;20.70;;;1.10;99.90;;;;;;4958925;28;20061;-94
2023/03/10 14:16:08;;;;;;;34.65;19.70;;;1.40;99.90;;;;;;4993439;28;20045;-92
2023/03/10 14:19:07;;;;;;;35.60;20.88;;;1.40;99.90;;;;;;4993681;28;20045;-91
2023/03/10 14:27:00;;;;;;;33.22;21.73;;;1.60;99.90;;;;;;5029546;28;20045;-94